createdAt,value
2018-02-05T00:02:01.622Z,48.90
2018-02-05T00:04:29.185Z,50.80
2018-02-05T00:06:56.760Z,50.63
2018-02-05T00:09:24.369Z,54.03
2018-02-05T00:11:51.946Z,45.33
2018-02-05T00:14:19.526Z,54.25
2018-02-05T00:16:47.084Z,57.13
2018-02-05T00:19:14.689Z,50.33
2018-02-05T00:21:42.238Z,53.35
2018-02-05T00:24:09.834Z,54.78
2018-02-05T00:26:37.400Z,52.40
2018-02-05T00:29:04.982Z,48.83
2018-02-05T00:31:32.574Z,51.17
2018-02-05T00:34:00.270Z,51.45
2018-02-05T00:36:27.868Z,46.13
2018-02-05T00:38:55.426Z,50.88
2018-02-05T00:41:23.027Z,52.20
2018-02-05T00:43:50.583Z,45.17
2018-02-05T00:46:18.183Z,53.63
2018-02-05T00:48:45.762Z,52.62
2018-02-05T00:51:13.358Z,52.15
2018-02-05T00:56:13.950Z,59.72
2018-02-05T00:58:41.554Z,55.30
2018-02-05T01:01:09.152Z,51.92
2018-02-05T01:03:36.734Z,52.35
2018-02-05T01:06:05.219Z,54.25
2018-02-05T01:11:05.970Z,55.35
2018-02-05T01:13:33.598Z,52.42
2018-02-05T01:16:01.162Z,53.83
2018-02-05T01:18:28.710Z,49.72
2018-02-05T01:20:56.306Z,52.08
2018-02-05T01:23:23.858Z,56.58
2018-02-05T01:25:51.502Z,55.53
2018-02-05T01:28:19.185Z,58.97
2018-02-05T01:30:46.813Z,61.85
2018-02-05T01:33:14.435Z,50.85
2018-02-05T01:35:42.007Z,55.88
2018-02-05T01:38:09.634Z,50.08
2018-02-05T01:40:37.962Z,53.70
2018-02-05T01:43:05.558Z,59.75
2018-02-05T01:45:33.109Z,53.78
2018-02-05T01:48:00.806Z,52.75
2018-02-05T01:50:28.365Z,55.00
2018-02-05T01:52:56.062Z,55.92
2018-02-05T01:55:23.617Z,62.55
2018-02-05T01:57:51.174Z,69.87
2018-02-05T02:00:18.873Z,61.25
2018-02-05T02:02:46.438Z,52.28
2018-02-05T02:05:14.788Z,63.60
2018-02-05T02:07:42.350Z,61.58
2018-02-05T02:10:09.931Z,54.78
2018-02-05T02:12:37.577Z,59.95
2018-02-05T02:15:05.180Z,59.47
2018-02-05T02:17:32.758Z,61.67
2018-02-05T02:20:00.318Z,62.83
2018-02-05T02:22:27.994Z,63.72
2018-02-05T02:24:55.578Z,61.58
2018-02-05T02:27:23.139Z,54.10
2018-02-05T02:29:52.446Z,62.08
2018-02-05T02:32:20.022Z,60.67
2018-02-05T02:34:48.378Z,56.53
2018-02-05T02:37:16.010Z,54.83
2018-02-05T02:39:43.603Z,57.65
2018-02-05T02:42:11.254Z,60.05
2018-02-05T02:44:38.860Z,59.50
2018-02-05T02:47:06.420Z,58.33
2018-02-05T02:49:33.974Z,64.05
2018-02-05T02:52:01.570Z,52.95
2018-02-05T02:54:29.135Z,64.95
2018-02-05T02:56:56.724Z,67.12
2018-02-05T02:59:25.054Z,57.10
2018-02-05T03:01:52.634Z,55.03
2018-02-05T03:04:20.194Z,67.62
2018-02-05T03:06:48.558Z,58.65
2018-02-05T03:09:16.131Z,65.65
2018-02-05T03:11:43.746Z,61.83
2018-02-05T03:14:11.318Z,51.60
2018-02-05T03:16:38.911Z,63.13
2018-02-05T03:19:06.494Z,62.97
2018-02-05T03:21:34.846Z,56.60
2018-02-05T03:24:02.526Z,57.80
2018-02-05T03:26:30.845Z,67.45
2018-02-05T03:28:58.446Z,59.35
2018-02-05T03:31:26.000Z,56.20
2018-02-05T03:33:53.586Z,61.85
2018-02-05T03:36:21.150Z,60.97
2018-02-05T03:38:48.751Z,60.95
2018-02-05T03:41:16.307Z,62.60
2018-02-05T03:43:43.889Z,66.25
2018-02-05T03:46:11.611Z,57.50
2018-02-05T03:48:39.385Z,69.03
2018-02-05T03:51:06.976Z,66.87
2018-02-05T03:53:34.547Z,64.97
2018-02-05T03:56:02.153Z,65.65
2018-02-05T03:58:29.718Z,73.70
2018-02-05T04:00:57.272Z,65.72
2018-02-05T04:03:24.874Z,57.17
2018-02-05T04:05:52.518Z,70.82
2018-02-05T04:08:20.118Z,57.65
2018-02-05T04:10:48.454Z,63.92
2018-02-05T04:13:16.047Z,58.75
2018-02-05T04:15:44.439Z,53.97
2018-02-05T04:18:12.049Z,52.28
2018-02-05T04:20:39.690Z,57.00
2018-02-05T04:23:07.254Z,56.60
2018-02-05T04:25:34.922Z,49.10
2018-02-05T04:28:02.493Z,53.35
2018-02-05T04:30:30.087Z,50.03
2018-02-05T04:32:58.486Z,44.75
2018-02-05T04:35:26.054Z,47.88
2018-02-05T04:37:53.621Z,55.15
2018-02-05T04:40:21.286Z,53.25
2018-02-05T04:42:48.837Z,50.35
2018-02-05T04:45:16.402Z,51.50
2018-02-05T04:47:44.003Z,46.22
2018-02-05T04:50:12.331Z,46.15
2018-02-05T04:52:40.018Z,45.17
2018-02-05T04:55:07.662Z,52.92
2018-02-05T04:57:35.248Z,39.45
2018-02-05T05:00:02.806Z,54.20
2018-02-05T05:02:30.458Z,46.17
2018-02-05T05:04:58.130Z,49.90
2018-02-05T05:07:25.691Z,45.70
2018-02-05T05:09:54.043Z,45.60
2018-02-05T05:12:21.726Z,50.75
2018-02-05T05:14:49.361Z,49.83
2018-02-05T05:17:16.928Z,47.08
2018-02-05T05:19:44.515Z,52.95
2018-02-05T05:22:13.010Z,51.72
2018-02-05T05:24:41.347Z,48.13
2018-02-05T05:27:08.935Z,57.38
2018-02-05T05:29:37.404Z,53.70
2018-02-05T05:32:04.998Z,48.95
2018-02-05T05:34:32.563Z,45.47
2018-02-05T05:37:00.173Z,52.80
2018-02-05T05:39:29.230Z,53.70
2018-02-05T05:41:56.825Z,49.15
2018-02-05T05:44:24.393Z,51.60
2018-02-05T05:46:52.755Z,48.47
2018-02-05T05:49:20.454Z,55.70
2018-02-05T05:51:48.017Z,52.40
2018-02-05T05:54:15.671Z,51.92
2018-02-05T05:56:43.249Z,45.83
2018-02-05T05:59:10.831Z,56.55
2018-02-05T06:01:38.397Z,48.22
2018-02-05T06:04:05.958Z,44.63
2018-02-05T06:06:33.545Z,48.90
2018-02-05T06:09:02.010Z,50.67
2018-02-05T06:11:29.599Z,57.10
2018-02-05T06:13:58.045Z,51.88
2018-02-05T06:16:25.662Z,49.03
2018-02-05T06:18:53.273Z,56.85
2018-02-05T06:21:20.853Z,49.50
2018-02-05T06:23:49.345Z,50.95
2018-02-05T06:26:16.983Z,53.87
2018-02-05T06:28:45.318Z,51.35
2018-02-05T06:31:12.915Z,50.25
2018-02-05T06:33:41.262Z,47.60
2018-02-05T06:36:08.829Z,48.65
2018-02-05T06:38:36.463Z,52.45
2018-02-05T06:41:04.034Z,52.97
2018-02-05T06:43:31.626Z,43.28
2018-02-05T06:45:59.974Z,46.28
2018-02-05T06:48:27.533Z,46.25
2018-02-05T06:51:07.017Z,46.63
2018-02-05T06:53:46.383Z,51.03
2018-02-05T06:56:23.886Z,49.88
2018-02-05T06:58:51.458Z,59.05
2018-02-05T07:01:19.055Z,53.87
2018-02-05T07:03:47.413Z,50.70
2018-02-05T07:06:14.998Z,52.00
2018-02-05T07:08:42.557Z,47.35
2018-02-05T07:11:10.272Z,60.95
2018-02-05T07:13:37.850Z,56.28
2018-02-05T07:16:05.414Z,50.70
2018-02-05T07:18:33.890Z,52.35
2018-02-05T07:21:02.243Z,52.08
2018-02-05T07:23:29.829Z,49.08
2018-02-05T07:25:58.153Z,51.17
2018-02-05T07:28:25.749Z,51.30
2018-02-05T07:30:53.298Z,54.70
2018-02-05T07:33:20.853Z,45.88
2018-02-05T07:35:48.445Z,47.25
2018-02-05T07:38:16.798Z,57.38
2018-02-05T07:40:44.573Z,53.25
2018-02-05T07:43:13.630Z,52.40
2018-02-05T07:45:41.297Z,52.75
2018-02-05T07:48:08.870Z,49.50
2018-02-05T07:50:36.597Z,48.80
2018-02-05T07:53:04.231Z,42.55
2018-02-05T07:55:32.590Z,54.63
2018-02-05T07:58:00.922Z,49.38
2018-02-05T08:00:28.479Z,50.60
2018-02-05T08:02:56.069Z,50.17
2018-02-05T08:05:23.675Z,46.75
2018-02-05T08:07:51.271Z,42.60
2018-02-05T08:10:18.885Z,45.88
2018-02-05T08:12:46.466Z,46.03
2018-02-05T08:15:14.051Z,50.70
2018-02-05T08:17:41.645Z,48.75
2018-02-05T08:20:09.970Z,50.00
2018-02-05T08:22:37.669Z,41.00
2018-02-05T08:25:05.334Z,50.75
2018-02-05T08:27:32.906Z,49.40
2018-02-05T08:30:01.250Z,50.10
2018-02-05T08:32:29.574Z,46.35
2018-02-05T08:34:57.166Z,48.33
2018-02-05T08:37:24.730Z,53.17
2018-02-05T08:39:52.326Z,47.40
2018-02-05T08:42:19.888Z,44.20
2018-02-05T08:44:48.245Z,51.75
2018-02-05T08:47:15.822Z,42.05
2018-02-05T08:49:44.203Z,44.22
2018-02-05T08:52:12.642Z,41.60
2018-02-05T08:54:40.393Z,43.70
2018-02-05T08:57:07.981Z,41.33
2018-02-05T08:59:35.591Z,39.20
2018-02-05T09:02:03.366Z,45.75
2018-02-05T09:04:30.918Z,39.88
2018-02-05T09:06:58.525Z,46.50
2018-02-05T09:09:26.081Z,37.28
2018-02-05T09:11:53.675Z,33.80
2018-02-05T09:14:21.246Z,31.87
2018-02-05T09:16:48.854Z,36.50
2018-02-05T09:19:16.438Z,35.97
2018-02-05T09:21:44.965Z,35.45
2018-02-05T09:24:12.562Z,31.95
2018-02-05T09:26:40.121Z,33.88
2018-02-05T09:29:07.710Z,35.50
2018-02-05T09:31:35.270Z,30.00
2018-02-05T09:34:02.887Z,33.83
2018-02-05T09:36:30.448Z,32.30
2018-02-05T09:38:58.042Z,33.67
2018-02-05T09:41:25.710Z,28.90
2018-02-05T09:43:53.345Z,32.00
2018-02-05T09:46:21.786Z,31.87
2018-02-05T09:48:49.354Z,30.62
2018-02-05T09:51:16.967Z,28.35
2018-02-05T09:53:44.530Z,22.20
2018-02-05T09:56:12.148Z,25.00
2018-02-05T09:58:41.427Z,24.73
2018-02-05T10:01:09.114Z,25.23
2018-02-05T10:03:37.491Z,23.30
2018-02-05T10:06:05.050Z,24.17
2018-02-05T10:08:33.578Z,25.95
2018-02-05T10:11:01.231Z,21.95
2018-02-05T10:13:28.881Z,25.95
2018-02-05T10:15:56.483Z,25.83
2018-02-05T10:18:24.094Z,22.33
2018-02-05T10:20:51.700Z,25.35
2018-02-05T10:23:19.269Z,23.60
2018-02-05T10:25:46.862Z,22.58
2018-02-05T10:28:15.221Z,21.45
2018-02-05T10:30:42.809Z,19.50
2018-02-05T10:33:10.494Z,19.70
2018-02-05T10:35:38.097Z,20.33
2018-02-05T10:38:06.493Z,19.57
2018-02-05T10:40:34.852Z,45.30
2018-02-05T10:43:02.459Z,19.50
2018-02-05T10:45:30.088Z,18.73
2018-02-05T10:47:58.622Z,18.60
2018-02-05T10:50:26.194Z,16.63
2018-02-05T10:52:53.834Z,21.87
2018-02-05T10:55:21.411Z,22.65
2018-02-05T10:57:49.850Z,17.77
2018-02-05T11:00:17.490Z,25.48
2018-02-05T11:02:45.842Z,19.20
2018-02-05T11:05:13.451Z,21.00
2018-02-05T11:07:41.014Z,21.33
2018-02-05T11:10:08.615Z,21.17
2018-02-05T11:12:36.354Z,20.05
2018-02-05T11:15:03.943Z,21.17
2018-02-05T11:17:31.510Z,16.10
2018-02-05T11:19:59.899Z,17.87
2018-02-05T11:22:28.258Z,18.37
2018-02-05T11:24:55.826Z,18.30
2018-02-05T11:27:24.306Z,17.48
2018-02-05T11:29:52.655Z,14.80
2018-02-05T11:32:20.242Z,16.90
2018-02-05T11:34:48.578Z,16.58
2018-02-05T11:37:16.163Z,18.08
2018-02-05T11:39:43.737Z,15.40
2018-02-05T11:42:12.105Z,17.13
2018-02-05T11:44:39.663Z,13.80
2018-02-05T11:47:07.228Z,14.67
2018-02-05T11:49:34.814Z,19.43
2018-02-05T11:52:02.367Z,18.40
2018-02-05T11:54:29.954Z,15.30
2018-02-05T11:56:57.538Z,18.93
2018-02-05T11:59:25.121Z,14.27
2018-02-05T12:01:53.602Z,13.50
2018-02-05T12:04:21.194Z,18.20
2018-02-05T12:06:48.756Z,15.13
2018-02-05T12:09:16.317Z,17.70
2018-02-05T12:11:43.910Z,21.63
2018-02-05T12:14:11.463Z,17.37
2018-02-05T12:16:39.097Z,16.58
2018-02-05T12:19:06.667Z,16.33
2018-02-05T12:21:34.262Z,14.87
2018-02-05T12:24:01.818Z,16.83
2018-02-05T12:26:29.378Z,16.90
2018-02-05T12:28:56.990Z,17.77
2018-02-05T12:31:24.550Z,13.73
2018-02-05T12:33:52.139Z,14.90
2018-02-05T12:36:19.713Z,14.60
2018-02-05T12:38:47.306Z,13.60
2018-02-05T12:41:14.902Z,13.33
2018-02-05T12:43:42.501Z,14.50
2018-02-05T12:46:10.202Z,16.47
2018-02-05T12:48:37.794Z,13.73
2018-02-05T12:51:05.372Z,13.40
2018-02-05T12:53:32.961Z,15.27
2018-02-05T12:56:00.514Z,14.13
2018-02-05T12:58:28.082Z,14.73
2018-02-05T13:01:01.226Z,16.73
2018-02-05T13:03:31.623Z,11.30
2018-02-05T13:06:18.871Z,11.50
2018-02-05T13:08:46.496Z,13.10
2018-02-05T13:11:14.130Z,12.70
2018-02-05T13:13:41.692Z,11.70
2018-02-05T13:16:09.464Z,12.60
2018-02-05T13:18:37.027Z,12.90
2018-02-05T13:21:04.609Z,17.60
2018-02-05T13:23:32.167Z,11.17
2018-02-05T13:25:59.834Z,10.17
2018-02-05T13:28:27.430Z,14.90
2018-02-05T13:30:55.767Z,12.37
2018-02-05T13:33:23.350Z,12.37
2018-02-05T13:35:50.911Z,13.63
2018-02-05T13:38:18.506Z,9.70
2018-02-05T13:40:46.142Z,9.27
2018-02-05T13:43:14.513Z,9.10
2018-02-05T13:45:42.859Z,9.60
2018-02-05T13:48:10.423Z,9.57
2018-02-05T13:50:38.012Z,11.43
2018-02-05T13:53:06.334Z,8.33
2018-02-05T13:55:34.042Z,8.83
2018-02-05T13:58:01.639Z,11.23
2018-02-05T14:00:29.218Z,12.40
2018-02-05T14:02:56.925Z,12.40
2018-02-05T14:05:24.722Z,13.43
2018-02-05T14:07:52.394Z,11.77
2018-02-05T14:10:19.941Z,10.03
2018-02-05T14:12:47.618Z,13.07
2018-02-05T14:15:15.177Z,12.67
2018-02-05T14:17:42.738Z,10.80
2018-02-05T14:20:10.318Z,15.93
2018-02-05T14:22:37.874Z,9.30
2018-02-05T14:25:05.461Z,8.60
2018-02-05T14:27:33.026Z,14.20
2018-02-05T14:30:01.391Z,14.70
2018-02-05T14:32:28.972Z,14.13
2018-02-05T14:34:57.494Z,19.30
2018-02-05T14:37:25.137Z,13.70
2018-02-05T14:39:52.710Z,14.00
2018-02-05T14:42:20.369Z,9.10
2018-02-05T14:44:48.686Z,11.70
2018-02-05T14:47:17.082Z,9.77
2018-02-05T14:49:45.398Z,8.60
2018-02-05T14:52:12.992Z,11.53
2018-02-05T14:54:40.562Z,11.03
2018-02-05T14:57:08.222Z,11.50
2018-02-05T14:59:35.809Z,10.17
2018-02-05T15:02:03.470Z,13.13
2018-02-05T15:04:31.254Z,12.13
2018-02-05T15:06:58.867Z,10.60
2018-02-05T15:09:27.307Z,12.00
2018-02-05T15:11:54.969Z,11.65
2018-02-05T15:14:22.566Z,11.97
2018-02-05T15:16:50.939Z,11.02
2018-02-05T15:19:19.274Z,9.38
2018-02-05T15:21:46.867Z,9.10
2018-02-05T15:24:14.434Z,17.27
2018-02-05T15:26:42.794Z,13.33
2018-02-05T15:29:11.127Z,8.40
2018-02-05T15:31:38.710Z,15.90
2018-02-05T15:34:06.307Z,11.83
2018-02-05T15:36:33.882Z,11.90
2018-02-05T15:39:02.370Z,10.47
2018-02-05T15:41:29.942Z,10.43
2018-02-05T15:43:57.533Z,10.52
2018-02-05T15:46:25.154Z,11.85
2018-02-05T15:48:52.769Z,15.18
2018-02-05T15:51:20.326Z,11.85
2018-02-05T15:53:47.898Z,12.50
2018-02-05T15:56:16.291Z,11.05
2018-02-05T15:58:44.695Z,10.50
2018-02-05T16:01:12.369Z,11.60
2018-02-05T16:03:39.975Z,11.70
2018-02-05T16:06:08.378Z,10.70
2018-02-05T16:08:35.960Z,12.07
2018-02-05T16:11:03.526Z,10.05
2018-02-05T16:13:31.168Z,14.13
2018-02-05T16:15:58.769Z,9.45
2018-02-05T16:18:26.391Z,11.73
2018-02-05T16:20:54.078Z,12.82
2018-02-05T16:23:21.642Z,13.55
2018-02-05T16:25:49.233Z,11.57
2018-02-05T16:28:16.807Z,11.95
2018-02-05T16:30:44.394Z,14.50
2018-02-05T16:33:11.998Z,13.48
2018-02-05T16:35:39.598Z,11.75
2018-02-05T16:38:07.214Z,12.05
2018-02-05T16:40:34.826Z,10.45
2018-02-05T16:43:02.386Z,12.30
2018-02-05T16:45:29.962Z,12.93
2018-02-05T16:47:57.635Z,13.05
2018-02-05T16:50:25.178Z,13.95
2018-02-05T16:52:52.797Z,15.27
2018-02-05T16:55:21.130Z,15.00
2018-02-05T16:57:48.718Z,12.90
2018-02-05T17:00:17.083Z,14.27
2018-02-05T17:02:44.683Z,15.10
2018-02-05T17:05:12.242Z,13.60
2018-02-05T17:07:39.850Z,13.60
2018-02-05T17:10:07.483Z,12.82
2018-02-05T17:12:35.162Z,11.52
2018-02-05T17:15:02.752Z,20.48
2018-02-05T17:17:31.102Z,12.13
2018-02-05T17:19:58.707Z,14.15
2018-02-05T17:22:26.270Z,10.57
2018-02-05T17:24:53.887Z,13.60
2018-02-05T17:27:22.314Z,19.62
2018-02-05T17:29:49.969Z,16.45
2018-02-05T17:32:17.563Z,15.40
2018-02-05T17:34:45.136Z,15.43
2018-02-05T17:37:12.732Z,17.17
2018-02-05T17:39:41.196Z,17.08
2018-02-05T17:42:08.861Z,17.08
2018-02-05T17:44:36.426Z,18.85
2018-02-05T17:47:04.947Z,15.95
2018-02-05T17:49:32.517Z,18.02
2018-02-05T17:52:01.981Z,21.10
2018-02-05T17:54:29.630Z,17.77
2018-02-05T17:56:58.182Z,15.82
2018-02-05T17:59:27.314Z,15.43
2018-02-05T18:01:54.931Z,17.80
2018-02-05T18:04:22.507Z,17.17
2018-02-05T18:06:50.876Z,23.38
2018-02-05T18:09:18.449Z,18.52
2018-02-05T18:11:46.064Z,19.15
2018-02-05T18:14:13.624Z,19.77
2018-02-05T18:16:41.229Z,30.70
2018-02-05T18:19:09.667Z,18.73
2018-02-05T18:21:37.229Z,21.52
2018-02-05T18:24:04.863Z,17.83
2018-02-05T18:26:32.439Z,23.60
2018-02-05T18:29:00.036Z,16.37
2018-02-05T18:31:27.611Z,18.40
2018-02-05T18:33:55.970Z,23.02
2018-02-05T18:36:23.538Z,19.55
2018-02-05T18:38:51.151Z,22.23
2018-02-05T18:41:18.723Z,20.70
2018-02-05T18:43:46.298Z,25.23
2018-02-05T18:46:14.032Z,21.80
2018-02-05T18:48:41.623Z,28.77
2018-02-05T18:51:09.227Z,22.75
2018-02-05T18:53:36.872Z,16.85
2018-02-05T18:56:05.259Z,21.48
2018-02-05T18:58:32.835Z,25.52
2018-02-05T19:01:00.398Z,19.85
2018-02-05T19:03:28.028Z,23.20
2018-02-05T19:05:56.363Z,21.27
2018-02-05T19:08:23.962Z,18.08
2018-02-05T19:10:52.286Z,31.77
2018-02-05T19:13:19.974Z,21.62
2018-02-05T19:15:47.661Z,20.42
2018-02-05T19:18:15.996Z,22.55
2018-02-05T19:20:43.716Z,22.30
2018-02-05T19:23:11.331Z,19.48
2018-02-05T19:25:38.927Z,25.70
2018-02-05T19:28:06.590Z,18.67
2018-02-05T19:30:34.202Z,24.30
2018-02-05T19:33:01.802Z,24.27
2018-02-05T19:35:29.371Z,21.77
2018-02-05T19:37:56.966Z,20.20
2018-02-05T19:40:24.562Z,26.42
2018-02-05T19:42:52.929Z,22.20
2018-02-05T19:45:20.528Z,22.55
2018-02-05T19:47:48.126Z,20.08
2018-02-05T19:50:15.697Z,22.23
2018-02-05T19:52:43.275Z,23.83
2018-02-05T19:55:11.655Z,27.48
2018-02-05T19:57:40.019Z,23.48
2018-02-05T20:00:07.637Z,24.60
2018-02-05T20:02:35.239Z,35.05
2018-02-05T20:05:02.922Z,25.42
2018-02-05T20:07:31.391Z,23.92
2018-02-05T20:09:59.759Z,29.55
2018-02-05T20:12:27.531Z,23.75
2018-02-05T20:14:55.918Z,23.02
2018-02-05T20:17:24.272Z,27.02
2018-02-05T20:19:51.835Z,28.92
2018-02-05T20:22:19.471Z,27.50
2018-02-05T20:24:47.068Z,23.70
2018-02-05T20:27:15.492Z,27.30
2018-02-05T20:29:43.119Z,24.98
2018-02-05T20:32:11.521Z,24.60
2018-02-05T20:34:39.210Z,33.78
2018-02-05T20:37:06.775Z,25.65
2018-02-05T20:39:34.359Z,28.12
2018-02-05T20:42:02.710Z,26.70
2018-02-05T20:44:30.319Z,24.70
2018-02-05T20:46:57.905Z,22.70
2018-02-05T20:49:25.553Z,25.37
2018-02-05T20:51:53.132Z,23.27
2018-02-05T20:54:20.706Z,24.60
2018-02-05T20:56:48.316Z,22.00
2018-02-05T20:59:15.955Z,26.55
2018-02-05T21:01:44.363Z,21.70
2018-02-05T21:04:11.925Z,24.90
2018-02-05T21:06:39.522Z,26.08
2018-02-05T21:09:07.099Z,22.58
2018-02-05T21:11:35.458Z,22.48
2018-02-05T21:14:03.042Z,20.27
2018-02-05T21:16:31.506Z,25.15
2018-02-05T21:18:59.075Z,19.92
2018-02-05T21:21:26.679Z,20.77
2018-02-05T21:23:54.303Z,24.12
2018-02-05T21:26:22.778Z,25.83
2018-02-05T21:28:51.190Z,22.15
2018-02-05T21:31:19.034Z,24.55
2018-02-05T21:33:46.661Z,23.38
2018-02-05T21:36:14.242Z,23.10
2018-02-05T21:38:42.575Z,22.87
2018-02-05T21:41:10.242Z,29.15
2018-02-05T21:43:37.814Z,27.15
2018-02-05T21:46:05.418Z,22.40
2018-02-05T21:48:33.023Z,24.50
2018-02-05T21:51:00.712Z,22.62
2018-02-05T21:53:28.234Z,23.25
2018-02-05T21:55:55.866Z,26.60
2018-02-05T21:58:23.447Z,23.30
2018-02-05T22:00:51.030Z,23.45
2018-02-05T22:03:18.648Z,23.98
2018-02-05T22:05:46.238Z,22.17
2018-02-05T22:08:13.834Z,28.55
2018-02-05T22:10:42.170Z,30.30
2018-02-05T22:13:09.850Z,30.55
2018-02-05T22:15:37.417Z,27.98
2018-02-05T22:18:05.050Z,24.77
2018-02-05T22:20:32.656Z,24.60
2018-02-05T22:23:00.999Z,25.25
2018-02-05T22:25:28.663Z,25.88
2018-02-05T22:27:56.231Z,19.85
2018-02-05T22:30:23.838Z,23.70
2018-02-05T22:32:51.416Z,28.25
2018-02-05T22:35:19.022Z,22.98
2018-02-05T22:37:47.350Z,30.90
2018-02-05T22:40:14.966Z,24.45
2018-02-05T22:42:42.634Z,21.30
2018-02-05T22:45:10.190Z,22.95
2018-02-05T22:47:37.790Z,23.75
2018-02-05T22:50:05.354Z,25.77
2018-02-05T22:52:33.010Z,28.17
2018-02-05T22:55:00.575Z,21.90
2018-02-05T22:57:28.142Z,26.90
2018-02-05T22:59:56.106Z,26.58
2018-02-05T23:02:23.682Z,23.87
2018-02-05T23:04:51.398Z,27.20
2018-02-05T23:07:19.537Z,22.08
2018-02-05T23:09:47.885Z,27.87
2018-02-05T23:12:15.453Z,23.75
2018-02-05T23:14:43.146Z,25.30
2018-02-05T23:17:10.703Z,26.80
2018-02-05T23:19:38.262Z,25.88
2018-02-05T23:22:05.914Z,24.75
2018-02-05T23:24:33.502Z,22.77
2018-02-05T23:27:01.125Z,23.65
2018-02-05T23:29:29.450Z,26.48
2018-02-05T23:31:57.046Z,26.35
2018-02-05T23:34:24.620Z,30.50
2018-02-05T23:36:53.083Z,27.87
2018-02-05T23:39:20.647Z,26.23
2018-02-05T23:41:48.979Z,32.22
2018-02-05T23:44:16.587Z,26.08
2018-02-05T23:46:44.913Z,29.58
2018-02-05T23:49:12.502Z,26.77
2018-02-05T23:51:40.090Z,30.20
2018-02-05T23:54:08.631Z,30.95
2018-02-05T23:56:36.364Z,28.17
2018-02-05T23:59:04.614Z,29.02
